sensor_id;sensor_type;location;lat;lon;timestamp;P1;durP1;ratioP1;P2;durP2;ratioP2
53389;SDS011;39288;42.970;1.524;2022-10-13T00:00:45;12.87;;;7.30;;
53389;SDS011;39288;42.970;1.524;2022-10-13T00:01:46;14.32;;;7.32;;
53389;SDS011;39288;42.970;1.524;2022-10-13T00:02:47;14.80;;;7.30;;
53389;SDS011;39288;42.970;1.524;2022-10-13T00:03:47;12.77;;;7.90;;
53389;SDS011;39288;42.970;1.524;2022-10-13T00:04:48;15.37;;;6.97;;
53389;SDS011;39288;42.970;1.524;2022-10-13T00:05:49;10.47;;;6.90;;
53389;SDS011;39288;42.970;1.524;2022-10-13T00:06:49;12.25;;;6.43;;
53389;SDS011;39288;42.970;1.524;2022-10-13T00:07:50;17.63;;;7.00;;
53389;SDS011;39288;42.970;1.524;2022-10-13T00:08:50;11.33;;;7.00;;
53389;SDS011;39288;42.970;1.524;2022-10-13T00:09:51;11.00;;;6.83;;
53389;SDS011;39288;42.970;1.524;2022-10-13T00:10:51;13.83;;;7.17;;
53389;SDS011;39288;42.970;1.524;2022-10-13T00:11:55;12.63;;;7.03;;
53389;SDS011;39288;42.970;1.524;2022-10-13T00:12:56;15.05;;;7.57;;
53389;SDS011;39288;42.970;1.524;2022-10-13T00:13:58;7.97;;;6.90;;
53389;SDS011;39288;42.970;1.524;2022-10-13T00:15:00;14.55;;;7.22;;
53389;SDS011;39288;42.970;1.524;2022-10-13T00:16:01;12.03;;;8.13;;
53389;SDS011;39288;42.970;1.524;2022-10-13T00:17:02;15.20;;;7.57;;
53389;SDS011;39288;42.970;1.524;2022-10-13T00:18:03;16.30;;;8.97;;
53389;SDS011;39288;42.970;1.524;2022-10-13T00:19:03;10.40;;;7.13;;
53389;SDS011;39288;42.970;1.524;2022-10-13T00:20:04;12.60;;;8.20;;
53389;SDS011;39288;42.970;1.524;2022-10-13T00:21:06;12.70;;;7.90;;
53389;SDS011;39288;42.970;1.524;2022-10-13T00:22:07;13.70;;;7.97;;
53389;SDS011;39288;42.970;1.524;2022-10-13T00:23:07;14.43;;;7.27;;
53389;SDS011;39288;42.970;1.524;2022-10-13T00:24:09;12.63;;;7.33;;
53389;SDS011;39288;42.970;1.524;2022-10-13T00:25:10;10.80;;;7.15;;
53389;SDS011;39288;42.970;1.524;2022-10-13T00:26:12;13.80;;;6.53;;
53389;SDS011;39288;42.970;1.524;2022-10-13T00:27:13;14.20;;;7.20;;
53389;SDS011;39288;42.970;1.524;2022-10-13T00:28:14;11.73;;;6.53;;
53389;SDS011;39288;42.970;1.524;2022-10-13T00:29:16;13.88;;;7.40;;
53389;SDS011;39288;42.970;1.524;2022-10-13T00:30:17;16.77;;;7.03;;
53389;SDS011;39288;42.970;1.524;2022-10-13T00:32:19;11.30;;;7.50;;
53389;SDS011;39288;42.970;1.524;2022-10-13T00:33:19;15.13;;;7.40;;
53389;SDS011;39288;42.970;1.524;2022-10-13T00:34:19;19.73;;;8.10;;
53389;SDS011;39288;42.970;1.524;2022-10-13T00:35:20;18.03;;;8.03;;
53389;SDS011;39288;42.970;1.524;2022-10-13T00:36:21;12.67;;;7.70;;
53389;SDS011;39288;42.970;1.524;2022-10-13T00:37:22;12.40;;;6.68;;
53389;SDS011;39288;42.970;1.524;2022-10-13T00:38:23;16.65;;;7.90;;
53389;SDS011;39288;42.970;1.524;2022-10-13T00:39:23;8.90;;;7.53;;
53389;SDS011;39288;42.970;1.524;2022-10-13T00:40:24;11.93;;;7.30;;
53389;SDS011;39288;42.970;1.524;2022-10-13T00:41:25;10.67;;;7.50;;
53389;SDS011;39288;42.970;1.524;2022-10-13T00:42:25;12.47;;;8.10;;
53389;SDS011;39288;42.970;1.524;2022-10-13T00:43:29;14.57;;;7.57;;
53389;SDS011;39288;42.970;1.524;2022-10-13T00:46:01;9.40;;;6.88;;
53389;SDS011;39288;42.970;1.524;2022-10-13T00:47:01;13.60;;;7.73;;
53389;SDS011;39288;42.970;1.524;2022-10-13T00:48:02;12.17;;;8.00;;
53389;SDS011;39288;42.970;1.524;2022-10-13T00:49:06;12.07;;;6.70;;
53389;SDS011;39288;42.970;1.524;2022-10-13T00:50:10;10.00;;;6.93;;
53389;SDS011;39288;42.970;1.524;2022-10-13T00:51:13;14.13;;;7.25;;
53389;SDS011;39288;42.970;1.524;2022-10-13T00:52:15;12.90;;;7.15;;
53389;SDS011;39288;42.970;1.524;2022-10-13T00:53:17;12.85;;;7.38;;
53389;SDS011;39288;42.970;1.524;2022-10-13T00:55:20;10.88;;;6.68;;
53389;SDS011;39288;42.970;1.524;2022-10-13T00:56:23;9.85;;;6.32;;
53389;SDS011;39288;42.970;1.524;2022-10-13T00:58:25;13.70;;;6.43;;
53389;SDS011;39288;42.970;1.524;2022-10-13T00:59:30;17.42;;;7.43;;
53389;SDS011;39288;42.970;1.524;2022-10-13T01:00:31;13.23;;;6.90;;
53389;SDS011;39288;42.970;1.524;2022-10-13T01:01:32;11.43;;;6.45;;
53389;SDS011;39288;42.970;1.524;2022-10-13T01:02:34;13.77;;;6.77;;
53389;SDS011;39288;42.970;1.524;2022-10-13T01:03:35;16.92;;;6.80;;
53389;SDS011;39288;42.970;1.524;2022-10-13T01:04:37;13.63;;;6.33;;
53389;SDS011;39288;42.970;1.524;2022-10-13T01:05:41;13.48;;;6.45;;
53389;SDS011;39288;42.970;1.524;2022-10-13T01:06:42;13.45;;;6.32;;
53389;SDS011;39288;42.970;1.524;2022-10-13T01:07:42;13.97;;;6.90;;
53389;SDS011;39288;42.970;1.524;2022-10-13T01:08:47;16.00;;;6.65;;
53389;SDS011;39288;42.970;1.524;2022-10-13T01:09:47;8.50;;;6.07;;
53389;SDS011;39288;42.970;1.524;2022-10-13T01:12:01;15.55;;;6.35;;
53389;SDS011;39288;42.970;1.524;2022-10-13T01:14:37;13.27;;;6.63;;
53389;SDS011;39288;42.970;1.524;2022-10-13T01:16:18;16.35;;;6.25;;
53389;SDS011;39288;42.970;1.524;2022-10-13T01:21:23;12.73;;;5.68;;
53389;SDS011;39288;42.970;1.524;2022-10-13T01:25:51;13.25;;;5.63;;
53389;SDS011;39288;42.970;1.524;2022-10-13T01:31:24;15.88;;;7.22;;
53389;SDS011;39288;42.970;1.524;2022-10-13T01:34:05;11.88;;;6.97;;
53389;SDS011;39288;42.970;1.524;2022-10-13T01:36:30;10.15;;;6.05;;
53389;SDS011;39288;42.970;1.524;2022-10-13T01:37:44;9.00;;;5.93;;
53389;SDS011;39288;42.970;1.524;2022-10-13T01:38:55;14.95;;;6.95;;
53389;SDS011;39288;42.970;1.524;2022-10-13T01:41:12;17.20;;;7.50;;
53389;SDS011;39288;42.970;1.524;2022-10-13T01:42:18;17.40;;;7.18;;
53389;SDS011;39288;42.970;1.524;2022-10-13T01:44:29;15.68;;;6.60;;
53389;SDS011;39288;42.970;1.524;2022-10-13T01:45:43;9.05;;;6.53;;
53389;SDS011;39288;42.970;1.524;2022-10-13T01:46:46;10.95;;;7.28;;
53389;SDS011;39288;42.970;1.524;2022-10-13T01:47:47;11.97;;;7.37;;
53389;SDS011;39288;42.970;1.524;2022-10-13T01:48:48;9.53;;;6.73;;
53389;SDS011;39288;42.970;1.524;2022-10-13T01:49:51;9.73;;;6.28;;
53389;SDS011;39288;42.970;1.524;2022-10-13T01:50:52;16.08;;;7.70;;
53389;SDS011;39288;42.970;1.524;2022-10-13T01:51:53;19.10;;;7.17;;
53389;SDS011;39288;42.970;1.524;2022-10-13T01:52:55;15.93;;;6.90;;
53389;SDS011;39288;42.970;1.524;2022-10-13T01:53:58;15.25;;;7.20;;
53389;SDS011;39288;42.970;1.524;2022-10-13T01:55:03;13.37;;;7.33;;
53389;SDS011;39288;42.970;1.524;2022-10-13T01:56:06;14.55;;;6.88;;
53389;SDS011;39288;42.970;1.524;2022-10-13T01:58:31;8.90;;;5.75;;
53389;SDS011;39288;42.970;1.524;2022-10-13T01:59:33;10.82;;;6.43;;
53389;SDS011;39288;42.970;1.524;2022-10-13T02:00:38;8.32;;;5.72;;
53389;SDS011;39288;42.970;1.524;2022-10-13T02:02:54;9.88;;;6.50;;
53389;SDS011;39288;42.970;1.524;2022-10-13T02:04:04;14.98;;;7.13;;
53389;SDS011;39288;42.970;1.524;2022-10-13T02:09:59;10.40;;;6.85;;
53389;SDS011;39288;42.970;1.524;2022-10-13T02:11:09;18.40;;;7.78;;
53389;SDS011;39288;42.970;1.524;2022-10-13T02:12:26;12.55;;;7.00;;
53389;SDS011;39288;42.970;1.524;2022-10-13T02:13:32;13.55;;;7.28;;
53389;SDS011;39288;42.970;1.524;2022-10-13T02:14:36;13.30;;;7.32;;
53389;SDS011;39288;42.970;1.524;2022-10-13T02:15:42;12.05;;;6.97;;
53389;SDS011;39288;42.970;1.524;2022-10-13T02:16:48;16.25;;;8.45;;
53389;SDS011;39288;42.970;1.524;2022-10-13T02:17:50;18.45;;;7.68;;
53389;SDS011;39288;42.970;1.524;2022-10-13T02:18:51;12.73;;;7.68;;
53389;SDS011;39288;42.970;1.524;2022-10-13T02:19:51;12.37;;;6.80;;
53389;SDS011;39288;42.970;1.524;2022-10-13T02:20:52;16.87;;;7.20;;
53389;SDS011;39288;42.970;1.524;2022-10-13T02:21:53;12.63;;;6.80;;
53389;SDS011;39288;42.970;1.524;2022-10-13T02:23:03;15.38;;;6.78;;
53389;SDS011;39288;42.970;1.524;2022-10-13T02:24:07;14.35;;;7.50;;
53389;SDS011;39288;42.970;1.524;2022-10-13T02:25:08;11.50;;;6.60;;
53389;SDS011;39288;42.970;1.524;2022-10-13T02:26:09;15.30;;;7.40;;
53389;SDS011;39288;42.970;1.524;2022-10-13T02:27:10;12.45;;;7.05;;
53389;SDS011;39288;42.970;1.524;2022-10-13T02:28:12;12.65;;;6.55;;
53389;SDS011;39288;42.970;1.524;2022-10-13T02:29:14;8.93;;;6.38;;
53389;SDS011;39288;42.970;1.524;2022-10-13T02:30:19;8.93;;;5.93;;
53389;SDS011;39288;42.970;1.524;2022-10-13T02:31:22;12.18;;;6.85;;
53389;SDS011;39288;42.970;1.524;2022-10-13T02:32:23;8.37;;;5.83;;
53389;SDS011;39288;42.970;1.524;2022-10-13T02:33:23;7.97;;;6.27;;
53389;SDS011;39288;42.970;1.524;2022-10-13T02:34:24;11.23;;;7.43;;
53389;SDS011;39288;42.970;1.524;2022-10-13T02:35:24;11.13;;;6.87;;
53389;SDS011;39288;42.970;1.524;2022-10-13T02:36:25;14.23;;;7.33;;
53389;SDS011;39288;42.970;1.524;2022-10-13T02:37:25;12.10;;;7.13;;
53389;SDS011;39288;42.970;1.524;2022-10-13T02:38:26;19.17;;;6.50;;
53389;SDS011;39288;42.970;1.524;2022-10-13T02:39:26;10.73;;;5.80;;
53389;SDS011;39288;42.970;1.524;2022-10-13T02:40:27;16.40;;;7.30;;
53389;SDS011;39288;42.970;1.524;2022-10-13T02:41:27;15.83;;;6.80;;
53389;SDS011;39288;42.970;1.524;2022-10-13T02:42:28;13.20;;;7.23;;
53389;SDS011;39288;42.970;1.524;2022-10-13T02:43:28;12.20;;;7.20;;
53389;SDS011;39288;42.970;1.524;2022-10-13T02:44:29;20.47;;;7.30;;
53389;SDS011;39288;42.970;1.524;2022-10-13T02:45:29;22.90;;;6.10;;
53389;SDS011;39288;42.970;1.524;2022-10-13T02:46:30;16.97;;;6.67;;
53389;SDS011;39288;42.970;1.524;2022-10-13T02:47:30;13.00;;;6.37;;
53389;SDS011;39288;42.970;1.524;2022-10-13T02:48:31;15.77;;;7.27;;
53389;SDS011;39288;42.970;1.524;2022-10-13T02:49:31;15.40;;;6.67;;
53389;SDS011;39288;42.970;1.524;2022-10-13T02:50:32;9.40;;;5.70;;
53389;SDS011;39288;42.970;1.524;2022-10-13T02:51:32;12.17;;;6.23;;
53389;SDS011;39288;42.970;1.524;2022-10-13T02:52:33;9.73;;;5.90;;
53389;SDS011;39288;42.970;1.524;2022-10-13T02:53:33;10.97;;;6.20;;
53389;SDS011;39288;42.970;1.524;2022-10-13T02:54:34;9.83;;;5.83;;
53389;SDS011;39288;42.970;1.524;2022-10-13T02:55:34;10.10;;;6.63;;
53389;SDS011;39288;42.970;1.524;2022-10-13T02:56:35;8.90;;;5.97;;
53389;SDS011;39288;42.970;1.524;2022-10-13T02:57:35;11.97;;;6.17;;
53389;SDS011;39288;42.970;1.524;2022-10-13T02:58:36;10.90;;;5.37;;
53389;SDS011;39288;42.970;1.524;2022-10-13T02:59:36;8.87;;;5.90;;
53389;SDS011;39288;42.970;1.524;2022-10-13T03:00:37;13.53;;;6.70;;
53389;SDS011;39288;42.970;1.524;2022-10-13T03:01:38;8.27;;;6.25;;
53389;SDS011;39288;42.970;1.524;2022-10-13T03:02:41;9.43;;;6.05;;
53389;SDS011;39288;42.970;1.524;2022-10-13T03:03:41;10.17;;;5.40;;
53389;SDS011;39288;42.970;1.524;2022-10-13T03:04:42;9.37;;;5.53;;
53389;SDS011;39288;42.970;1.524;2022-10-13T03:05:43;10.83;;;5.97;;
53389;SDS011;39288;42.970;1.524;2022-10-13T03:06:44;9.80;;;5.90;;
53389;SDS011;39288;42.970;1.524;2022-10-13T03:07:44;8.60;;;6.00;;
53389;SDS011;39288;42.970;1.524;2022-10-13T03:08:44;12.13;;;6.20;;
53389;SDS011;39288;42.970;1.524;2022-10-13T03:09:45;11.70;;;7.10;;
53389;SDS011;39288;42.970;1.524;2022-10-13T03:10:45;14.13;;;6.80;;
53389;SDS011;39288;42.970;1.524;2022-10-13T03:11:46;10.20;;;6.70;;
53389;SDS011;39288;42.970;1.524;2022-10-13T03:12:46;14.53;;;7.53;;
53389;SDS011;39288;42.970;1.524;2022-10-13T03:13:47;14.47;;;7.53;;
53389;SDS011;39288;42.970;1.524;2022-10-13T03:14:47;9.43;;;6.50;;
53389;SDS011;39288;42.970;1.524;2022-10-13T03:15:48;9.93;;;6.23;;
53389;SDS011;39288;42.970;1.524;2022-10-13T03:16:48;8.47;;;6.43;;
53389;SDS011;39288;42.970;1.524;2022-10-13T03:17:49;12.57;;;6.70;;
53389;SDS011;39288;42.970;1.524;2022-10-13T03:18:49;13.83;;;7.27;;
53389;SDS011;39288;42.970;1.524;2022-10-13T03:19:50;14.83;;;7.67;;
53389;SDS011;39288;42.970;1.524;2022-10-13T03:22:03;18.33;;;8.40;;
53389;SDS011;39288;42.970;1.524;2022-10-13T03:23:04;9.27;;;6.77;;
53389;SDS011;39288;42.970;1.524;2022-10-13T03:24:06;11.48;;;7.32;;
53389;SDS011;39288;42.970;1.524;2022-10-13T03:25:09;10.50;;;7.20;;
53389;SDS011;39288;42.970;1.524;2022-10-13T03:26:09;14.10;;;7.03;;
53389;SDS011;39288;42.970;1.524;2022-10-13T03:27:10;9.43;;;7.10;;
53389;SDS011;39288;42.970;1.524;2022-10-13T03:28:10;16.60;;;7.30;;
53389;SDS011;39288;42.970;1.524;2022-10-13T03:29:14;13.07;;;7.03;;
53389;SDS011;39288;42.970;1.524;2022-10-13T03:30:15;16.67;;;6.90;;
53389;SDS011;39288;42.970;1.524;2022-10-13T03:31:16;9.27;;;6.90;;
53389;SDS011;39288;42.970;1.524;2022-10-13T03:32:17;14.30;;;7.88;;
53389;SDS011;39288;42.970;1.524;2022-10-13T03:33:18;17.30;;;8.23;;
53389;SDS011;39288;42.970;1.524;2022-10-13T03:34:18;13.70;;;7.47;;
53389;SDS011;39288;42.970;1.524;2022-10-13T03:35:19;12.50;;;7.47;;
53389;SDS011;39288;42.970;1.524;2022-10-13T03:36:20;12.80;;;8.07;;
53389;SDS011;39288;42.970;1.524;2022-10-13T03:37:20;10.70;;;7.60;;
53389;SDS011;39288;42.970;1.524;2022-10-13T03:38:21;11.10;;;7.87;;
53389;SDS011;39288;42.970;1.524;2022-10-13T03:39:21;10.97;;;6.97;;
53389;SDS011;39288;42.970;1.524;2022-10-13T03:40:22;10.40;;;6.93;;
53389;SDS011;39288;42.970;1.524;2022-10-13T03:41:23;9.63;;;6.68;;
53389;SDS011;39288;42.970;1.524;2022-10-13T03:42:24;11.83;;;6.30;;
53389;SDS011;39288;42.970;1.524;2022-10-13T03:43:24;11.13;;;6.17;;
53389;SDS011;39288;42.970;1.524;2022-10-13T03:44:25;8.40;;;6.07;;
53389;SDS011;39288;42.970;1.524;2022-10-13T03:45:25;9.83;;;6.63;;
53389;SDS011;39288;42.970;1.524;2022-10-13T03:46:27;10.23;;;6.85;;
53389;SDS011;39288;42.970;1.524;2022-10-13T03:47:29;11.55;;;7.03;;
53389;SDS011;39288;42.970;1.524;2022-10-13T03:48:30;10.50;;;6.67;;
53389;SDS011;39288;42.970;1.524;2022-10-13T03:49:31;9.10;;;6.78;;
53389;SDS011;39288;42.970;1.524;2022-10-13T03:50:31;10.90;;;7.20;;
53389;SDS011;39288;42.970;1.524;2022-10-13T03:51:32;12.73;;;7.30;;
53389;SDS011;39288;42.970;1.524;2022-10-13T03:52:32;19.27;;;6.87;;
53389;SDS011;39288;42.970;1.524;2022-10-13T03:53:33;8.47;;;6.30;;
53389;SDS011;39288;42.970;1.524;2022-10-13T03:54:33;9.87;;;6.40;;
53389;SDS011;39288;42.970;1.524;2022-10-13T03:55:34;17.27;;;5.93;;
53389;SDS011;39288;42.970;1.524;2022-10-13T03:56:34;8.90;;;6.43;;
53389;SDS011;39288;42.970;1.524;2022-10-13T03:57:36;11.05;;;7.28;;
53389;SDS011;39288;42.970;1.524;2022-10-13T03:58:36;11.70;;;6.90;;
53389;SDS011;39288;42.970;1.524;2022-10-13T03:59:40;11.63;;;7.27;;
53389;SDS011;39288;42.970;1.524;2022-10-13T04:00:41;10.73;;;7.10;;
53389;SDS011;39288;42.970;1.524;2022-10-13T04:01:41;9.23;;;7.87;;
53389;SDS011;39288;42.970;1.524;2022-10-13T04:02:42;19.93;;;8.17;;
53389;SDS011;39288;42.970;1.524;2022-10-13T04:03:42;20.07;;;11.10;;
53389;SDS011;39288;42.970;1.524;2022-10-13T04:04:42;33.50;;;11.57;;
53389;SDS011;39288;42.970;1.524;2022-10-13T04:05:43;18.33;;;10.80;;
53389;SDS011;39288;42.970;1.524;2022-10-13T04:06:44;33.87;;;11.73;;
53389;SDS011;39288;42.970;1.524;2022-10-13T04:07:44;16.87;;;8.70;;
53389;SDS011;39288;42.970;1.524;2022-10-13T04:08:45;13.73;;;8.80;;
53389;SDS011;39288;42.970;1.524;2022-10-13T04:09:45;12.80;;;7.33;;
53389;SDS011;39288;42.970;1.524;2022-10-13T04:10:46;12.27;;;7.57;;
53389;SDS011;39288;42.970;1.524;2022-10-13T04:11:48;13.40;;;7.50;;
53389;SDS011;39288;42.970;1.524;2022-10-13T04:12:50;13.10;;;7.43;;
53389;SDS011;39288;42.970;1.524;2022-10-13T04:13:50;15.67;;;7.33;;
53389;SDS011;39288;42.970;1.524;2022-10-13T04:14:51;12.07;;;7.60;;
53389;SDS011;39288;42.970;1.524;2022-10-13T04:15:52;13.10;;;7.63;;
53389;SDS011;39288;42.970;1.524;2022-10-13T04:16:52;12.10;;;6.93;;
53389;SDS011;39288;42.970;1.524;2022-10-13T04:17:52;14.80;;;7.13;;
53389;SDS011;39288;42.970;1.524;2022-10-13T04:18:57;11.07;;;7.00;;
53389;SDS011;39288;42.970;1.524;2022-10-13T04:20:00;12.20;;;7.18;;
53389;SDS011;39288;42.970;1.524;2022-10-13T04:21:00;9.73;;;7.23;;
53389;SDS011;39288;42.970;1.524;2022-10-13T04:22:01;13.03;;;8.10;;
53389;SDS011;39288;42.970;1.524;2022-10-13T04:23:01;9.77;;;6.47;;
53389;SDS011;39288;42.970;1.524;2022-10-13T04:24:02;15.13;;;8.03;;
53389;SDS011;39288;42.970;1.524;2022-10-13T04:25:03;8.32;;;6.95;;
53389;SDS011;39288;42.970;1.524;2022-10-13T04:26:05;11.75;;;6.97;;
53389;SDS011;39288;42.970;1.524;2022-10-13T04:27:05;11.50;;;7.13;;
53389;SDS011;39288;42.970;1.524;2022-10-13T04:28:06;9.70;;;7.47;;
53389;SDS011;39288;42.970;1.524;2022-10-13T04:29:07;7.40;;;6.70;;
53389;SDS011;39288;42.970;1.524;2022-10-13T04:30:09;12.45;;;6.43;;
53389;SDS011;39288;42.970;1.524;2022-10-13T04:31:10;7.60;;;6.45;;
53389;SDS011;39288;42.970;1.524;2022-10-13T04:32:10;12.27;;;7.47;;
53389;SDS011;39288;42.970;1.524;2022-10-13T04:33:11;13.07;;;7.80;;
53389;SDS011;39288;42.970;1.524;2022-10-13T04:34:11;12.70;;;6.73;;
53389;SDS011;39288;42.970;1.524;2022-10-13T04:35:12;9.93;;;6.73;;
53389;SDS011;39288;42.970;1.524;2022-10-13T04:36:13;11.43;;;7.73;;
53389;SDS011;39288;42.970;1.524;2022-10-13T04:37:13;11.18;;;7.10;;
53389;SDS011;39288;42.970;1.524;2022-10-13T04:38:14;10.43;;;6.00;;
53389;SDS011;39288;42.970;1.524;2022-10-13T04:39:14;8.73;;;5.70;;
53389;SDS011;39288;42.970;1.524;2022-10-13T04:40:15;10.77;;;6.63;;
53389;SDS011;39288;42.970;1.524;2022-10-13T04:41:16;8.83;;;6.03;;
53389;SDS011;39288;42.970;1.524;2022-10-13T04:42:17;10.70;;;6.28;;
53389;SDS011;39288;42.970;1.524;2022-10-13T04:43:18;8.93;;;5.43;;
53389;SDS011;39288;42.970;1.524;2022-10-13T04:44:18;9.90;;;5.93;;
53389;SDS011;39288;42.970;1.524;2022-10-13T04:45:19;7.97;;;6.00;;
53389;SDS011;39288;42.970;1.524;2022-10-13T04:46:23;9.47;;;6.23;;
53389;SDS011;39288;42.970;1.524;2022-10-13T04:47:24;13.88;;;5.97;;
53389;SDS011;39288;42.970;1.524;2022-10-13T04:48:25;8.37;;;5.77;;
53389;SDS011;39288;42.970;1.524;2022-10-13T04:49:25;11.83;;;7.17;;
53389;SDS011;39288;42.970;1.524;2022-10-13T04:51:28;27.70;;;6.85;;
53389;SDS011;39288;42.970;1.524;2022-10-13T04:52:28;11.90;;;6.20;;
53389;SDS011;39288;42.970;1.524;2022-10-13T04:53:29;15.17;;;6.60;;
53389;SDS011;39288;42.970;1.524;2022-10-13T04:54:30;22.73;;;7.10;;
53389;SDS011;39288;42.970;1.524;2022-10-13T04:55:30;11.93;;;6.80;;
53389;SDS011;39288;42.970;1.524;2022-10-13T04:56:35;24.90;;;7.72;;
53389;SDS011;39288;42.970;1.524;2022-10-13T04:57:36;25.40;;;8.23;;
53389;SDS011;39288;42.970;1.524;2022-10-13T04:58:37;15.13;;;7.75;;
53389;SDS011;39288;42.970;1.524;2022-10-13T04:59:38;13.20;;;7.18;;
53389;SDS011;39288;42.970;1.524;2022-10-13T05:00:38;13.77;;;7.70;;
53389;SDS011;39288;42.970;1.524;2022-10-13T05:01:39;14.03;;;8.13;;
53389;SDS011;39288;42.970;1.524;2022-10-13T05:02:39;13.47;;;8.10;;
53389;SDS011;39288;42.970;1.524;2022-10-13T05:03:40;12.73;;;7.60;;
53389;SDS011;39288;42.970;1.524;2022-10-13T05:04:41;13.97;;;7.33;;
53389;SDS011;39288;42.970;1.524;2022-10-13T05:05:41;12.27;;;7.13;;
53389;SDS011;39288;42.970;1.524;2022-10-13T05:06:42;7.97;;;7.00;;
53389;SDS011;39288;42.970;1.524;2022-10-13T05:07:42;14.03;;;7.60;;
53389;SDS011;39288;42.970;1.524;2022-10-13T05:08:43;13.43;;;7.70;;
53389;SDS011;39288;42.970;1.524;2022-10-13T05:09:43;12.53;;;7.63;;
53389;SDS011;39288;42.970;1.524;2022-10-13T05:10:54;13.83;;;8.90;;
53389;SDS011;39288;42.970;1.524;2022-10-13T05:11:56;9.68;;;6.95;;
53389;SDS011;39288;42.970;1.524;2022-10-13T05:12:56;12.17;;;7.53;;
53389;SDS011;39288;42.970;1.524;2022-10-13T05:13:57;13.50;;;8.27;;
53389;SDS011;39288;42.970;1.524;2022-10-13T05:14:58;9.97;;;7.37;;
53389;SDS011;39288;42.970;1.524;2022-10-13T05:15:58;10.53;;;7.43;;
53389;SDS011;39288;42.970;1.524;2022-10-13T05:16:59;18.70;;;8.00;;
53389;SDS011;39288;42.970;1.524;2022-10-13T05:19:01;9.90;;;6.60;;
53389;SDS011;39288;42.970;1.524;2022-10-13T05:20:02;8.50;;;6.47;;
53389;SDS011;39288;42.970;1.524;2022-10-13T05:21:09;9.40;;;6.13;;
53389;SDS011;39288;42.970;1.524;2022-10-13T05:22:11;9.73;;;6.45;;
53389;SDS011;39288;42.970;1.524;2022-10-13T05:23:12;9.57;;;6.70;;
53389;SDS011;39288;42.970;1.524;2022-10-13T05:25:15;9.10;;;6.63;;
53389;SDS011;39288;42.970;1.524;2022-10-13T05:26:16;10.70;;;6.53;;
53389;SDS011;39288;42.970;1.524;2022-10-13T05:27:17;14.15;;;6.82;;
53389;SDS011;39288;42.970;1.524;2022-10-13T05:28:17;9.13;;;6.40;;
53389;SDS011;39288;42.970;1.524;2022-10-13T05:29:18;9.50;;;6.37;;
53389;SDS011;39288;42.970;1.524;2022-10-13T05:30:18;9.20;;;6.27;;
53389;SDS011;39288;42.970;1.524;2022-10-13T05:31:20;9.73;;;6.63;;
53389;SDS011;39288;42.970;1.524;2022-10-13T05:32:22;10.45;;;6.80;;
53389;SDS011;39288;42.970;1.524;2022-10-13T05:33:22;10.80;;;7.00;;
53389;SDS011;39288;42.970;1.524;2022-10-13T05:34:23;16.60;;;6.67;;
53389;SDS011;39288;42.970;1.524;2022-10-13T05:35:24;16.40;;;7.23;;
53389;SDS011;39288;42.970;1.524;2022-10-13T05:36:26;15.02;;;7.57;;
53389;SDS011;39288;42.970;1.524;2022-10-13T05:37:31;12.38;;;7.25;;
53389;SDS011;39288;42.970;1.524;2022-10-13T05:38:32;9.87;;;7.33;;
53389;SDS011;39288;42.970;1.524;2022-10-13T05:39:32;12.07;;;8.27;;
53389;SDS011;39288;42.970;1.524;2022-10-13T05:40:32;11.10;;;8.63;;
53389;SDS011;39288;42.970;1.524;2022-10-13T05:41:33;12.37;;;7.80;;
53389;SDS011;39288;42.970;1.524;2022-10-13T05:42:34;11.60;;;7.93;;
53389;SDS011;39288;42.970;1.524;2022-10-13T05:43:35;12.93;;;8.37;;
53389;SDS011;39288;42.970;1.524;2022-10-13T05:44:36;11.85;;;7.63;;
53389;SDS011;39288;42.970;1.524;2022-10-13T05:45:37;13.00;;;8.20;;
53389;SDS011;39288;42.970;1.524;2022-10-13T05:46:37;12.13;;;7.53;;
53389;SDS011;39288;42.970;1.524;2022-10-13T05:47:38;10.33;;;8.00;;
53389;SDS011;39288;42.970;1.524;2022-10-13T05:48:38;14.80;;;8.50;;
53389;SDS011;39288;42.970;1.524;2022-10-13T05:49:39;9.60;;;7.17;;
53389;SDS011;39288;42.970;1.524;2022-10-13T05:50:40;10.03;;;6.97;;
53389;SDS011;39288;42.970;1.524;2022-10-13T05:51:41;12.23;;;7.10;;
53389;SDS011;39288;42.970;1.524;2022-10-13T05:52:44;11.43;;;7.07;;
53389;SDS011;39288;42.970;1.524;2022-10-13T05:53:47;10.93;;;7.87;;
53389;SDS011;39288;42.970;1.524;2022-10-13T05:54:53;10.23;;;7.10;;
53389;SDS011;39288;42.970;1.524;2022-10-13T05:55:55;13.68;;;7.60;;
53389;SDS011;39288;42.970;1.524;2022-10-13T05:57:02;12.00;;;7.50;;
53389;SDS011;39288;42.970;1.524;2022-10-13T05:58:03;9.90;;;7.03;;
53389;SDS011;39288;42.970;1.524;2022-10-13T05:59:04;14.07;;;7.47;;
53389;SDS011;39288;42.970;1.524;2022-10-13T06:00:08;9.82;;;7.15;;
53389;SDS011;39288;42.970;1.524;2022-10-13T06:01:11;10.05;;;7.00;;
53389;SDS011;39288;42.970;1.524;2022-10-13T06:02:13;10.90;;;7.47;;
53389;SDS011;39288;42.970;1.524;2022-10-13T06:03:15;7.65;;;6.95;;
53389;SDS011;39288;42.970;1.524;2022-10-13T06:04:18;10.68;;;7.18;;
53389;SDS011;39288;42.970;1.524;2022-10-13T06:05:21;14.40;;;7.07;;
53389;SDS011;39288;42.970;1.524;2022-10-13T06:06:23;12.93;;;7.78;;
53389;SDS011;39288;42.970;1.524;2022-10-13T06:07:24;10.15;;;6.25;;
53389;SDS011;39288;42.970;1.524;2022-10-13T06:08:25;9.20;;;6.63;;
53389;SDS011;39288;42.970;1.524;2022-10-13T06:09:27;7.17;;;6.17;;
53389;SDS011;39288;42.970;1.524;2022-10-13T06:10:33;9.88;;;6.28;;
53389;SDS011;39288;42.970;1.524;2022-10-13T06:11:34;12.70;;;7.03;;
53389;SDS011;39288;42.970;1.524;2022-10-13T06:12:35;12.53;;;6.40;;
53389;SDS011;39288;42.970;1.524;2022-10-13T06:13:35;8.30;;;5.93;;
53389;SDS011;39288;42.970;1.524;2022-10-13T06:14:36;12.30;;;6.13;;
53389;SDS011;39288;42.970;1.524;2022-10-13T06:15:36;14.30;;;6.60;;
53389;SDS011;39288;42.970;1.524;2022-10-13T06:16:37;14.63;;;6.87;;
53389;SDS011;39288;42.970;1.524;2022-10-13T06:17:37;10.17;;;6.70;;
53389;SDS011;39288;42.970;1.524;2022-10-13T06:18:38;18.57;;;7.20;;
53389;SDS011;39288;42.970;1.524;2022-10-13T06:19:38;12.87;;;6.93;;
53389;SDS011;39288;42.970;1.524;2022-10-13T06:20:39;10.03;;;7.17;;
53389;SDS011;39288;42.970;1.524;2022-10-13T06:21:39;15.50;;;6.87;;
53389;SDS011;39288;42.970;1.524;2022-10-13T06:22:40;8.57;;;5.93;;
53389;SDS011;39288;42.970;1.524;2022-10-13T06:23:40;13.90;;;6.63;;
53389;SDS011;39288;42.970;1.524;2022-10-13T06:24:41;14.10;;;7.37;;
53389;SDS011;39288;42.970;1.524;2022-10-13T06:25:48;13.63;;;7.67;;
53389;SDS011;39288;42.970;1.524;2022-10-13T06:26:49;9.32;;;7.28;;
53389;SDS011;39288;42.970;1.524;2022-10-13T06:27:49;12.30;;;7.60;;
53389;SDS011;39288;42.970;1.524;2022-10-13T06:28:50;10.13;;;7.70;;
53389;SDS011;39288;42.970;1.524;2022-10-13T06:29:50;18.60;;;7.77;;
53389;SDS011;39288;42.970;1.524;2022-10-13T06:30:51;15.00;;;7.40;;
53389;SDS011;39288;42.970;1.524;2022-10-13T06:31:56;11.88;;;7.35;;
53389;SDS011;39288;42.970;1.524;2022-10-13T06:32:56;10.77;;;7.83;;
53389;SDS011;39288;42.970;1.524;2022-10-13T06:33:57;15.33;;;7.70;;
53389;SDS011;39288;42.970;1.524;2022-10-13T06:34:58;13.48;;;7.65;;
53389;SDS011;39288;42.970;1.524;2022-10-13T06:36:02;12.60;;;7.50;;
53389;SDS011;39288;42.970;1.524;2022-10-13T06:37:03;8.73;;;7.45;;
53389;SDS011;39288;42.970;1.524;2022-10-13T06:38:04;12.03;;;7.10;;
53389;SDS011;39288;42.970;1.524;2022-10-13T06:39:04;10.67;;;7.63;;
53389;SDS011;39288;42.970;1.524;2022-10-13T06:40:05;12.33;;;7.17;;
53389;SDS011;39288;42.970;1.524;2022-10-13T06:41:06;10.00;;;6.95;;
53389;SDS011;39288;42.970;1.524;2022-10-13T06:42:07;13.90;;;6.93;;
53389;SDS011;39288;42.970;1.524;2022-10-13T06:43:07;11.40;;;7.43;;
53389;SDS011;39288;42.970;1.524;2022-10-13T06:44:08;10.90;;;7.03;;